Time,TemperatureF,DewpointF,PressureIn,WindDirection,WindDirectionDegrees,WindSpeedMPH,WindSpeedGustMPH,Humidity,HourlyPrecipIn,Conditions,Clouds,dailyrainin,SoftwareType,DateUTC
2013-07-08 00:01:00,76.6,68.5,29.90,SE,135,4.7,4.7,76,0.00,CLR,OVC,0.00,WeatherDisplay:10.37,2013-07-08 05:01:00,
2013-07-08 00:06:00,76.6,68.5,29.90,SSE,158,4.0,4.6,76,0.00,CLR,OVC,0.00,WeatherDisplay:10.37,2013-07-08 05:06:00,
2013-07-08 00:11:00,76.6,68.5,29.90,SSE,158,6.2,6.2,76,0.00,CLR,OVC,0.00,WeatherDisplay:10.37,2013-07-08 05:11:00,
2013-07-08 00:16:00,76.6,68.5,29.90,South,180,4.0,4.6,76,0.00,CLR,OVC,0.00,WeatherDisplay:10.37,2013-07-08 05:16:00,
2013-07-08 00:21:00,76.6,68.9,29.90,South,180,3.1,4.6,77,0.00,CLR,OVC,0.00,WeatherDisplay:10.37,2013-07-08 05:21:00,
2013-07-08 00:26:00,76.6,68.9,29.90,South,180,5.6,5.8,77,0.00,CLR,OVC,0.00,WeatherDisplay:10.37,2013-07-08 05:26:00,
2013-07-08 00:31:00,76.5,68.7,29.90,SSE,158,3.3,3.5,77,0.00,CLR,OVC,0.00,WeatherDisplay:10.37,2013-07-08 05:31:00,
2013-07-08 00:36:00,76.5,68.7,29.90,SSE,158,2.0,4.6,77,0.00,CLR,OVC,0.00,WeatherDisplay:10.37,2013-07-08 05:36:00,
2013-07-08 00:41:00,76.3,68.5,29.90,SW,225,4.0,4.0,77,0.00,CLR,OVC,0.00,WeatherDisplay:10.37,2013-07-08 05:41:00,
2013-07-08 00:46:00,76.3,68.5,29.90,South,180,3.3,4.6,77,0.00,CLR,OVC,0.00,WeatherDisplay:10.37,2013-07-08 05:46:00,
2013-07-08 00:51:00,76.3,68.5,29.89,South,180,3.3,3.5,77,0.00,CLR,OVC,0.00,WeatherDisplay:10.37,2013-07-08 05:51:00,
2013-07-08 00:56:00,76.3,68.5,29.89,South,180,2.6,3.5,77,0.00,CLR,OVC,0.00,WeatherDisplay:10.37,2013-07-08 05:56:00,
2013-07-08 01:01:00,76.3,68.5,29.89,South,180,2.4,3.5,77,0.00,CLR,OVC,0.00,WeatherDisplay:10.37,2013-07-08 06:01:00,
2013-07-08 01:06:00,76.3,68.5,29.89,SSE,158,2.6,2.6,77,0.00,CLR,OVC,0.00,WeatherDisplay:10.37,2013-07-08 06:06:00,
2013-07-08 01:11:00,76.3,68.5,29.89,South,180,4.0,4.0,77,0.00,CLR,OVC,0.00,WeatherDisplay:10.37,2013-07-08 06:11:00,
2013-07-08 01:16:00,76.3,68.5,29.89,SW,225,1.2,3.5,77,0.00,CLR,OVC,0.00,WeatherDisplay:10.37,2013-07-08 06:16:00,
2013-07-08 01:21:00,76.3,68.5,29.89,SW,225,0.7,2.3,77,0.00,CLR,OVC,0.00,WeatherDisplay:10.37,2013-07-08 06:21:00,
2013-07-08 01:26:00,76.3,68.5,29.89,South,180,2.2,2.3,77,0.00,CLR,OVC,0.00,WeatherDisplay:10.37,2013-07-08 06:26:00,
2013-07-08 01:31:00,76.3,68.5,29.89,SW,225,2.0,2.3,77,0.00,CLR,OVC,0.00,WeatherDisplay:10.37,2013-07-08 06:31:00,
2013-07-08 01:36:00,76.3,68.5,29.89,SW,225,1.8,2.3,77,0.00,CLR,OVC,0.00,WeatherDisplay:10.37,2013-07-08 06:36:00,
2013-07-08 01:41:00,76.3,68.5,29.91,West,270,3.1,10.4,77,0.07,RA,OVC,0.13,WeatherDisplay:10.37,2013-07-08 06:41:00,
2013-07-08 01:46:00,75.9,67.8,29.89,SSW,202,2.9,3.5,76,0.22,RA,OVC,0.24,WeatherDisplay:10.37,2013-07-08 06:46:00,
2013-07-08 01:51:00,75.2,67.5,29.89,WNW,292,2.4,3.5,77,0.26,RA,OVC,0.26,WeatherDisplay:10.37,2013-07-08 06:51:00,
2013-07-08 01:56:00,75.0,66.6,29.90,WNW,292,1.4,3.5,75,0.26,RA,OVC,0.26,WeatherDisplay:10.37,2013-07-08 06:56:00,
2013-07-08 02:01:00,74.7,66.2,29.89,NNW,338,1.6,2.3,75,0.26,CLR,OVC,0.26,WeatherDisplay:10.37,2013-07-08 07:01:00,
2013-07-08 02:06:00,74.3,65.5,29.89,NNW,338,1.2,2.3,74,0.26,CLR,OVC,0.26,WeatherDisplay:10.37,2013-07-08 07:06:00,
2013-07-08 02:11:00,74.1,65.3,29.89,NNW,338,1.2,1.2,74,0.26,CLR,OVC,0.26,WeatherDisplay:10.37,2013-07-08 07:11:00,
2013-07-08 02:16:00,73.9,65.1,29.88,North,0,0.9,1.2,74,0.26,CLR,OVC,0.26,WeatherDisplay:10.37,2013-07-08 07:16:00,
2013-07-08 02:21:00,73.8,65.0,29.89,North,0,0.2,0.2,74,0.26,CLR,OVC,0.26,WeatherDisplay:10.37,2013-07-08 07:21:00,
2013-07-08 02:27:00,73.8,65.3,29.89,NNW,338,0.7,0.7,75,0.26,CLR,OVC,0.26,WeatherDisplay:10.37,2013-07-08 07:27:00,
2013-07-08 02:31:00,73.8,65.3,29.89,North,0,1.2,1.2,75,0.26,CLR,OVC,0.26,WeatherDisplay:10.37,2013-07-08 07:31:00,
2013-07-08 02:37:00,73.8,65.0,29.89,North,0,1.2,1.2,74,0.26,CLR,OVC,0.26,WeatherDisplay:10.37,2013-07-08 07:37:00,
2013-07-08 02:42:00,73.8,65.0,29.88,NNE,22,1.4,1.4,74,0.19,CLR,OVC,0.26,WeatherDisplay:10.37,2013-07-08 07:42:00,
2013-07-08 02:47:00,73.8,64.6,29.88,ENE,68,4.5,4.6,73,0.03,CLR,OVC,0.26,WeatherDisplay:10.37,2013-07-08 07:47:00,
2013-07-08 02:52:00,73.6,64.4,29.88,East,90,3.1,3.5,73,0.00,CLR,OVC,0.26,WeatherDisplay:10.37,2013-07-08 07:52:00,
2013-07-08 02:57:00,73.6,63.2,29.88,East,90,1.2,2.3,70,0.00,CLR,OVC,0.26,WeatherDisplay:10.37,2013-07-08 07:57:00,
2013-07-08 03:02:00,73.4,61.3,29.87,East,90,0.7,1.2,66,0.00,CLR,OVC,0.26,WeatherDisplay:10.37,2013-07-08 08:02:00,
2013-07-08 03:07:00,73.2,61.6,29.87,ENE,68,1.8,1.8,67,0.00,CLR,OVC,0.26,WeatherDisplay:10.37,2013-07-08 08:07:00,
2013-07-08 03:12:00,73.2,61.2,29.87,SE,135,0.5,1.2,66,0.00,CLR,OVC,0.26,WeatherDisplay:10.37,2013-07-08 08:12:00,
2013-07-08 03:17:00,73.0,61.0,29.87,ESE,112,0.7,1.2,66,0.00,CLR,OVC,0.26,WeatherDisplay:10.37,2013-07-08 08:17:00,
2013-07-08 03:22:00,73.2,61.6,29.87,East,90,0.7,1.2,67,0.00,CLR,OVC,0.26,WeatherDisplay:10.37,2013-07-08 08:22:00,
2013-07-08 03:27:00,73.2,61.2,29.88,East,90,1.2,1.2,66,0.00,CLR,OVC,0.26,WeatherDisplay:10.37,2013-07-08 08:27:00,
2013-07-08 03:32:00,73.0,61.0,29.88,ESE,112,0.9,1.2,66,0.00,CLR,OVC,0.26,WeatherDisplay:10.37,2013-07-08 08:32:00,
2013-07-08 03:37:00,73.2,59.9,29.88,SE,135,4.0,4.0,63,0.00,CLR,OVC,0.26,WeatherDisplay:10.37,2013-07-08 08:37:00,
2013-07-08 03:42:00,73.2,59.4,29.88,SE,135,4.5,4.6,62,0.00,CLR,OVC,0.26,WeatherDisplay:10.37,2013-07-08 08:42:00,
2013-07-08 03:47:00,73.2,59.4,29.88,SE,135,3.6,4.6,62,0.00,CLR,OVC,0.26,WeatherDisplay:10.37,2013-07-08 08:47:00,
2013-07-08 03:52:00,73.0,59.2,29.88,ESE,112,1.8,3.5,62,0.00,CLR,OVC,0.26,WeatherDisplay:10.37,2013-07-08 08:52:00,
2013-07-08 03:57:00,73.0,59.7,29.88,SE,135,2.9,2.9,63,0.00,CLR,OVC,0.26,WeatherDisplay:10.37,2013-07-08 08:57:00,
2013-07-08 04:02:00,73.0,59.2,29.88,SSE,158,5.9,5.9,62,0.00,CLR,OVC,0.26,WeatherDisplay:10.37,2013-07-08 09:02:00,
2013-07-08 04:07:00,73.0,59.2,29.88,SSE,158,5.6,5.8,62,0.00,CLR,OVC,0.26,WeatherDisplay:10.37,2013-07-08 09:07:00,
2013-07-08 04:12:00,72.9,59.1,29.89,SSE,158,5.4,5.8,62,0.00,CLR,OVC,0.26,WeatherDisplay:10.37,2013-07-08 09:12:00,
2013-07-08 04:17:00,72.9,58.6,29.89,SE,135,6.0,6.9,61,0.00,CLR,OVC,0.26,WeatherDisplay:10.37,2013-07-08 09:17:00,
2013-07-08 04:22:00,72.9,58.6,29.89,SE,135,6.7,8.1,61,0.00,CLR,OVC,0.26,WeatherDisplay:10.37,2013-07-08 09:22:00,
2013-07-08 04:27:00,72.9,58.6,29.89,SSE,158,6.4,6.4,61,0.00,CLR,OVC,0.26,WeatherDisplay:10.37,2013-07-08 09:27:00,
2013-07-08 04:32:00,72.7,58.5,29.89,SSE,158,6.9,6.9,61,0.00,CLR,OVC,0.26,WeatherDisplay:10.37,2013-07-08 09:32:00,
2013-07-08 04:37:00,72.7,58.5,29.89,SSE,158,6.7,6.9,61,0.00,CLR,OVC,0.26,WeatherDisplay:10.37,2013-07-08 09:37:00,
2013-07-08 04:42:00,72.7,58.5,29.90,SSE,158,6.7,6.9,61,0.00,CLR,OVC,0.26,WeatherDisplay:10.37,2013-07-08 09:42:00,
2013-07-08 04:47:00,72.7,58.5,29.90,SSE,158,6.0,6.9,61,0.00,CLR,OVC,0.26,WeatherDisplay:10.37,2013-07-08 09:47:00,
2013-07-08 04:52:00,72.7,58.0,29.89,SE,135,3.8,3.8,60,0.00,CLR,OVC,0.26,WeatherDisplay:10.37,2013-07-08 09:52:00,
2013-07-08 04:57:00,72.7,58.0,29.90,SE,135,3.8,4.6,60,0.00,CLR,OVC,0.26,WeatherDisplay:10.37,2013-07-08 09:57:00,
2013-07-08 05:02:00,72.7,58.0,29.90,SE,135,2.2,2.3,60,0.00,CLR,OVC,0.26,WeatherDisplay:10.37,2013-07-08 10:02:00,
2013-07-08 05:07:00,72.7,58.0,29.90,SE,135,2.9,4.6,60,0.00,CLR,OVC,0.26,WeatherDisplay:10.37,2013-07-08 10:07:00,
2013-07-08 05:12:00,72.7,58.0,29.90,SSE,158,4.3,4.6,60,0.00,CLR,OVC,0.26,WeatherDisplay:10.37,2013-07-08 10:12:00,
2013-07-08 05:17:00,72.7,58.0,29.90,SE,135,3.3,3.5,60,0.00,CLR,OVC,0.26,WeatherDisplay:10.37,2013-07-08 10:17:00,
2013-07-08 05:22:00,72.7,58.0,29.90,SSE,158,3.6,3.6,60,0.00,CLR,OVC,0.26,WeatherDisplay:10.37,2013-07-08 10:22:00,
2013-07-08 05:27:00,72.5,57.8,29.89,SSE,158,4.5,4.6,60,0.00,CLR,OVC,0.26,WeatherDisplay:10.37,2013-07-08 10:27:00,
2013-07-08 05:32:00,72.5,57.8,29.89,SSE,158,3.6,4.6,60,0.00,CLR,OVC,0.26,WeatherDisplay:10.37,2013-07-08 10:32:00,
2013-07-08 05:37:00,72.5,57.8,29.89,SSE,158,3.3,3.5,60,0.00,CLR,OVC,0.26,WeatherDisplay:10.37,2013-07-08 10:37:00,
2013-07-08 05:42:00,72.5,57.8,29.89,SSE,158,3.1,3.5,60,0.00,CLR,OVC,0.26,WeatherDisplay:10.37,2013-07-08 10:42:00,
2013-07-08 05:47:00,72.5,57.8,29.89,SE,135,2.2,2.3,60,0.00,CLR,OVC,0.26,WeatherDisplay:10.37,2013-07-08 10:47:00,
2013-07-08 05:52:00,72.3,58.1,29.89,SE,135,2.2,2.3,61,0.00,CLR,OVC,0.26,WeatherDisplay:10.37,2013-07-08 10:52:00,
2013-07-08 05:57:00,72.3,58.1,29.89,South,180,1.6,2.3,61,0.00,CLR,OVC,0.26,WeatherDisplay:10.37,2013-07-08 10:57:00,
2013-07-08 06:02:00,72.3,58.1,29.89,SSW,202,1.6,1.6,61,0.00,CLR,OVC,0.26,WeatherDisplay:10.37,2013-07-08 11:02:00,
2013-07-08 06:07:00,72.3,58.6,29.89,SW,225,0.5,1.2,62,0.00,CLR,OVC,0.26,WeatherDisplay:10.37,2013-07-08 11:07:00,
2013-07-08 06:12:00,72.3,59.0,29.90,SW,225,0.0,0.0,63,0.00,CLR,OVC,0.26,WeatherDisplay:10.37,2013-07-08 11:12:00,
2013-07-08 06:17:00,72.3,59.0,29.90,WNW,292,0.0,0.0,63,0.00,CLR,OVC,0.26,WeatherDisplay:10.37,2013-07-08 11:17:00,
2013-07-08 06:22:00,72.5,59.6,29.91,NNE,22,6.2,6.9,64,0.00,CLR,OVC,0.26,WeatherDisplay:10.37,2013-07-08 11:22:00,
2013-07-08 06:27:00,72.5,59.2,29.91,North,0,6.0,6.0,63,0.00,CLR,OVC,0.26,WeatherDisplay:10.37,2013-07-08 11:27:00,
2013-07-08 06:32:00,72.7,58.9,29.91,North,0,1.4,2.3,62,0.00,CLR,OVC,0.26,WeatherDisplay:10.37,2013-07-08 11:32:00,
2013-07-08 06:37:00,72.7,58.9,29.91,NNW,338,2.9,2.9,62,0.00,CLR,OVC,0.26,WeatherDisplay:10.37,2013-07-08 11:37:00,
2013-07-08 06:42:00,72.7,58.9,29.91,NNE,22,3.6,5.8,62,0.00,CLR,OVC,0.26,WeatherDisplay:10.37,2013-07-08 11:42:00,
2013-07-08 06:47:00,72.7,58.9,29.91,NNE,22,5.2,8.1,62,0.00,CLR,OVC,0.26,WeatherDisplay:10.37,2013-07-08 11:47:00,
2013-07-08 06:52:00,72.7,58.5,29.91,NNE,22,7.8,10.4,61,0.00,CLR,OVC,0.26,WeatherDisplay:10.37,2013-07-08 11:52:00,
2013-07-08 06:57:00,72.7,58.5,29.91,NNE,22,3.3,5.8,61,0.00,CLR,OVC,0.26,WeatherDisplay:10.37,2013-07-08 11:57:00,
2013-07-08 07:03:00,72.9,58.6,29.90,NNE,22,3.3,3.5,61,0.00,CLR,OVC,0.26,WeatherDisplay:10.37,2013-07-08 12:03:00,
2013-07-08 07:08:00,73.0,58.3,29.91,NNE,22,2.6,4.6,60,0.00,CLR,OVC,0.26,WeatherDisplay:10.37,2013-07-08 12:08:00,
2013-07-08 07:13:00,73.0,58.3,29.91,NNE,22,1.2,2.3,60,0.00,CLR,OVC,0.26,WeatherDisplay:10.37,2013-07-08 12:13:00,
2013-07-08 07:18:00,73.2,58.5,29.91,NNE,22,1.6,2.3,60,0.00,CLR,OVC,0.26,WeatherDisplay:10.37,2013-07-08 12:18:00,
2013-07-08 07:23:00,73.2,58.5,29.91,ENE,68,1.2,2.3,60,0.00,CLR,OVC,0.26,WeatherDisplay:10.37,2013-07-08 12:23:00,
2013-07-08 07:28:00,73.2,58.5,29.91,ENE,68,3.3,3.3,60,0.00,CLR,OVC,0.26,WeatherDisplay:10.37,2013-07-08 12:28:00,
2013-07-08 07:33:00,73.4,58.7,29.91,ENE,68,1.6,3.5,60,0.00,CLR,OVC,0.26,WeatherDisplay:10.37,2013-07-08 12:33:00,
2013-07-08 07:38:00,73.4,58.7,29.91,East,90,1.2,3.5,60,0.00,CLR,OVC,0.26,WeatherDisplay:10.37,2013-07-08 12:38:00,
2013-07-08 07:43:00,73.6,58.8,29.92,NE,45,1.2,1.2,60,0.00,CLR,OVC,0.26,WeatherDisplay:10.37,2013-07-08 12:43:00,
2013-07-08 07:48:00,73.6,58.8,29.92,NE,45,0.9,1.2,60,0.00,CLR,OVC,0.26,WeatherDisplay:10.37,2013-07-08 12:48:00,
2013-07-08 07:53:00,73.8,59.0,29.93,North,0,0.5,1.2,60,0.00,CLR,OVC,0.26,WeatherDisplay:10.37,2013-07-08 12:53:00,
2013-07-08 07:58:00,73.9,59.2,29.93,ENE,68,0.0,0.0,60,0.00,CLR,OVC,0.26,WeatherDisplay:10.37,2013-07-08 12:58:00,
2013-07-08 08:03:00,73.9,59.2,29.93,ENE,68,0.0,0.0,60,0.00,CLR,OVC,0.26,WeatherDisplay:10.37,2013-07-08 13:03:00,
2013-07-08 08:08:00,73.9,59.2,29.93,North,0,1.2,1.2,60,0.00,CLR,OVC,0.26,WeatherDisplay:10.37,2013-07-08 13:08:00,
2013-07-08 08:13:00,74.1,59.3,29.94,NNW,338,1.2,1.2,60,0.00,CLR,OVC,0.26,WeatherDisplay:10.37,2013-07-08 13:13:00,
2013-07-08 08:18:00,74.1,59.3,29.93,WNW,292,0.9,1.2,60,0.00,CLR,OVC,0.26,WeatherDisplay:10.37,2013-07-08 13:18:00,
2013-07-08 08:23:00,74.3,59.5,29.93,North,0,1.2,2.3,60,0.00,CLR,OVC,0.26,WeatherDisplay:10.37,2013-07-08 13:23:00,
2013-07-08 08:28:00,74.5,60.1,29.94,NNE,22,1.8,2.3,61,0.00,CLR,OVC,0.26,WeatherDisplay:10.37,2013-07-08 13:28:00,
2013-07-08 08:33:00,74.8,60.5,29.94,North,0,2.9,2.9,61,0.00,CLR,OVC,0.26,WeatherDisplay:10.37,2013-07-08 13:33:00,
2013-07-08 08:38:00,74.8,60.9,29.94,North,0,0.7,2.3,62,0.00,CLR,OVC,0.26,WeatherDisplay:10.37,2013-07-08 13:38:00,
2013-07-08 08:43:00,75.0,61.6,29.94,NNW,338,0.0,1.2,63,0.00,CLR,OVC,0.26,WeatherDisplay:10.37,2013-07-08 13:43:00,
2013-07-08 08:48:00,74.8,62.3,29.93,North,0,1.8,2.3,65,0.00,CLR,OVC,0.26,WeatherDisplay:10.37,2013-07-08 13:48:00,
2013-07-08 08:53:00,74.8,63.1,29.93,West,270,0.7,2.3,67,0.00,CLR,OVC,0.26,WeatherDisplay:10.37,2013-07-08 13:53:00,
2013-07-08 08:58:00,75.0,64.2,29.94,West,270,0.7,1.2,69,0.00,CLR,OVC,0.26,WeatherDisplay:10.37,2013-07-08 13:58:00,
2013-07-08 09:03:00,75.0,64.6,29.94,West,270,1.2,1.2,70,0.00,CLR,OVC,0.26,WeatherDisplay:10.37,2013-07-08 14:03:00,
2013-07-08 09:08:00,75.4,65.3,29.94,West,270,1.2,1.2,71,0.00,CLR,OVC,0.26,WeatherDisplay:10.37,2013-07-08 14:08:00,
2013-07-08 09:13:00,75.4,65.7,29.94,WSW,248,1.6,1.6,72,0.00,CLR,OVC,0.26,WeatherDisplay:10.37,2013-07-08 14:13:00,
2013-07-08 09:18:00,75.6,65.9,29.94,West,270,1.8,1.8,72,0.00,CLR,OVC,0.26,WeatherDisplay:10.37,2013-07-08 14:18:00,
2013-07-08 09:23:00,75.6,66.3,29.93,SW,225,0.5,0.0,73,0.00,CLR,OVC,0.26,WeatherDisplay:10.37,2013-07-08 14:23:00,
2013-07-08 09:28:00,75.7,66.9,29.94,WNW,292,0.9,1.2,74,0.00,CLR,OVC,0.26,WeatherDisplay:10.37,2013-07-08 14:28:00,
2013-07-08 09:33:00,75.9,67.8,29.94,WNW,292,1.4,1.4,76,0.00,CLR,OVC,0.26,WeatherDisplay:10.37,2013-07-08 14:33:00,
2013-07-08 09:38:00,76.1,68.4,29.94,West,270,2.4,2.4,77,0.00,CLR,OVC,0.26,WeatherDisplay:10.37,2013-07-08 14:38:00,
2013-07-08 09:43:00,76.6,68.9,29.94,NW,315,0.5,1.2,77,0.00,CLR,OVC,0.26,WeatherDisplay:10.37,2013-07-08 14:43:00,
2013-07-08 09:48:00,77.0,69.6,29.94,West,270,1.8,2.3,78,0.00,CLR,OVC,0.26,WeatherDisplay:10.37,2013-07-08 14:48:00,
2013-07-08 09:53:00,77.2,69.8,29.94,WNW,292,1.8,3.5,78,0.00,CLR,OVC,0.26,WeatherDisplay:10.37,2013-07-08 14:53:00,
2013-07-08 09:58:00,77.4,70.0,29.94,NW,315,0.9,1.2,78,0.00,CLR,OVC,0.26,WeatherDisplay:10.37,2013-07-08 14:58:00,
2013-07-08 10:03:00,77.5,70.1,29.94,WNW,292,2.0,4.6,78,0.00,CLR,OVC,0.26,WeatherDisplay:10.37,2013-07-08 15:03:00,
2013-07-08 10:08:00,77.9,70.1,29.94,West,270,1.8,2.3,77,0.00,CLR,OVC,0.26,WeatherDisplay:10.37,2013-07-08 15:08:00,
2013-07-08 10:13:00,78.3,70.5,29.94,WSW,248,3.3,3.5,77,0.00,CLR,OVC,0.26,WeatherDisplay:10.37,2013-07-08 15:13:00,
2013-07-08 10:18:00,78.8,71.0,29.94,WSW,248,1.2,3.5,77,0.00,CLR,OVC,0.26,WeatherDisplay:10.37,2013-07-08 15:18:00,
2013-07-08 10:23:00,79.0,71.2,29.94,NNW,338,1.2,2.3,77,0.00,CLR,OVC,0.26,WeatherDisplay:10.37,2013-07-08 15:23:00,
2013-07-08 10:28:00,79.2,70.9,29.94,NNW,338,2.0,2.3,76,0.00,CLR,OVC,0.26,WeatherDisplay:10.37,2013-07-08 15:28:00,
2013-07-08 10:33:00,79.5,71.3,29.94,WNW,292,1.4,2.3,76,0.00,CLR,OVC,0.26,WeatherDisplay:10.37,2013-07-08 15:33:00,
2013-07-08 10:38:00,79.7,71.5,29.94,WNW,292,1.2,1.2,76,0.00,CLR,OVC,0.26,WeatherDisplay:10.37,2013-07-08 15:38:00,
2013-07-08 10:43:00,79.9,71.6,29.94,WNW,292,3.1,4.6,76,0.00,CLR,OVC,0.26,WeatherDisplay:10.37,2013-07-08 15:43:00,
2013-07-08 10:48:00,79.9,71.2,29.94,West,270,2.9,2.9,75,0.00,CLR,OVC,0.26,WeatherDisplay:10.37,2013-07-08 15:48:00,
2013-07-08 10:53:00,80.4,72.2,29.94,NNW,338,1.2,2.3,76,0.00,CLR,OVC,0.26,WeatherDisplay:10.37,2013-07-08 15:53:00,
2013-07-08 10:58:00,80.8,72.1,29.94,West,270,2.4,2.4,75,0.00,CLR,OVC,0.26,WeatherDisplay:10.37,2013-07-08 15:58:00,
2013-07-08 11:03:00,81.1,72.5,29.94,WNW,292,1.2,2.3,75,0.00,CLR,OVC,0.26,WeatherDisplay:10.37,2013-07-08 16:03:00,
2013-07-08 11:08:00,81.5,72.8,29.94,NNW,338,0.7,1.2,75,0.00,CLR,OVC,0.26,WeatherDisplay:10.37,2013-07-08 16:08:00,
2013-07-08 11:13:00,81.9,73.5,29.94,West,270,1.8,2.3,76,0.00,CLR,OVC,0.26,WeatherDisplay:10.37,2013-07-08 16:13:00,
2013-07-08 11:18:00,82.0,73.7,29.94,NNW,338,1.2,2.3,76,0.00,CLR,OVC,0.26,WeatherDisplay:10.37,2013-07-08 16:18:00,
2013-07-08 11:23:00,82.4,73.3,29.94,NNW,338,1.4,2.3,74,0.00,CLR,OVC,0.26,WeatherDisplay:10.37,2013-07-08 16:23:00,
2013-07-08 11:28:00,82.4,72.9,29.94,NNW,338,1.6,2.3,73,0.00,CLR,OVC,0.26,WeatherDisplay:10.37,2013-07-08 16:28:00,
2013-07-08 11:33:00,82.6,73.4,29.94,NW,315,2.6,2.6,74,0.00,CLR,OVC,0.26,WeatherDisplay:10.37,2013-07-08 16:33:00,
2013-07-08 11:38:00,82.8,73.6,29.94,WNW,292,3.1,3.1,74,0.00,CLR,OVC,0.26,WeatherDisplay:10.37,2013-07-08 16:38:00,
2013-07-08 11:43:00,82.8,73.6,29.94,North,0,8.7,8.7,74,0.00,CLR,OVC,0.26,WeatherDisplay:10.37,2013-07-08 16:43:00,
2013-07-08 11:49:00,82.8,73.6,29.94,WNW,292,2.6,5.8,74,0.00,CLR,OVC,0.26,WeatherDisplay:10.37,2013-07-08 16:49:00,
2013-07-08 11:54:00,83.1,74.0,29.94,WNW,292,2.4,2.4,74,0.00,CLR,OVC,0.26,WeatherDisplay:10.37,2013-07-08 16:54:00,
2013-07-08 11:59:00,82.9,73.4,29.94,WNW,292,1.2,1.2,73,0.00,CLR,OVC,0.26,WeatherDisplay:10.37,2013-07-08 16:59:00,
2013-07-08 12:05:00,82.9,73.4,29.93,North,0,5.4,5.4,73,0.00,CLR,OVC,0.26,WeatherDisplay:10.37,2013-07-08 17:05:00,
2013-07-08 12:10:00,83.1,73.2,29.93,West,270,2.2,2.2,72,0.00,CLR,OVC,0.26,WeatherDisplay:10.37,2013-07-08 17:10:00,
2013-07-08 12:15:00,83.1,73.2,29.94,North,0,0.7,3.5,72,0.00,CLR,OVC,0.26,WeatherDisplay:10.37,2013-07-08 17:15:00,
2013-07-08 12:20:00,83.3,73.3,29.94,NW,315,0.9,3.5,72,0.00,CLR,OVC,0.26,WeatherDisplay:10.37,2013-07-08 17:20:00,
2013-07-08 12:26:00,83.5,73.5,29.94,NNW,338,1.8,2.3,72,0.00,CLR,OVC,0.26,WeatherDisplay:10.37,2013-07-08 17:26:00,
2013-07-08 12:31:00,83.7,74.5,29.94,NNW,338,0.9,2.3,74,0.00,CLR,OVC,0.26,WeatherDisplay:10.37,2013-07-08 17:31:00,
2013-07-08 12:37:00,83.7,73.7,29.94,NNW,338,1.6,2.3,72,0.00,CLR,OVC,0.26,WeatherDisplay:10.37,2013-07-08 17:37:00,
2013-07-08 12:42:00,83.8,74.3,29.94,WNW,292,1.8,2.3,73,0.00,CLR,OVC,0.26,WeatherDisplay:10.37,2013-07-08 17:42:00,
2013-07-08 12:47:00,83.8,74.3,29.94,NNW,338,1.4,2.3,73,0.00,CLR,OVC,0.26,WeatherDisplay:10.37,2013-07-08 17:47:00,
2013-07-08 12:53:00,84.0,74.0,29.93,NW,315,2.4,3.5,72,0.00,CLR,OVC,0.26,WeatherDisplay:10.37,2013-07-08 17:53:00,
2013-07-08 12:58:00,84.0,74.0,29.93,North,0,1.8,2.3,72,0.00,CLR,OVC,0.26,WeatherDisplay:10.37,2013-07-08 17:58:00,
2013-07-08 13:03:00,84.2,74.2,29.93,NNE,22,6.0,6.0,72,0.00,CLR,OVC,0.26,WeatherDisplay:10.37,2013-07-08 18:03:00,
2013-07-08 13:09:00,84.2,73.3,29.93,WNW,292,1.8,3.5,70,0.00,CLR,OVC,0.26,WeatherDisplay:10.37,2013-07-08 18:09:00,
2013-07-08 13:14:00,84.2,73.8,29.93,NW,315,0.9,2.3,71,0.00,CLR,OVC,0.26,WeatherDisplay:10.37,2013-07-08 18:14:00,
2013-07-08 13:19:00,84.6,73.7,29.93,North,0,1.8,2.4,70,0.00,CLR,OVC,0.26,WeatherDisplay:10.37,2013-07-08 18:19:00,
2013-07-08 13:24:00,84.6,73.3,29.93,NW,315,1.8,2.3,69,0.00,CLR,OVC,0.26,WeatherDisplay:10.37,2013-07-08 18:24:00,
2013-07-08 13:29:00,84.7,73.4,29.94,North,0,2.0,2.3,69,0.00,CLR,OVC,0.26,WeatherDisplay:10.37,2013-07-08 18:29:00,
2013-07-08 13:35:00,84.9,73.6,29.94,West,270,1.6,1.6,69,0.00,CLR,OVC,0.26,WeatherDisplay:10.37,2013-07-08 18:35:00,
2013-07-08 13:40:00,84.9,73.6,29.93,North,0,4.3,4.3,69,0.00,CLR,OVC,0.26,WeatherDisplay:10.37,2013-07-08 18:40:00,
2013-07-08 13:45:00,84.9,74.0,29.93,North,0,2.2,3.5,70,0.00,CLR,OVC,0.26,WeatherDisplay:10.37,2013-07-08 18:45:00,
2013-07-08 13:51:00,85.1,74.6,29.93,NNE,22,4.5,8.1,71,0.00,CLR,OVC,0.26,WeatherDisplay:10.37,2013-07-08 18:51:00,
2013-07-08 13:56:00,85.3,74.8,29.94,West,270,1.2,2.3,71,0.00,CLR,OVC,0.26,WeatherDisplay:10.37,2013-07-08 18:56:00,
2013-07-08 14:02:00,85.6,74.7,29.93,NW,315,2.2,2.3,70,0.00,CLR,OVC,0.26,WeatherDisplay:10.37,2013-07-08 19:02:00,
2013-07-08 14:07:00,85.6,73.9,29.93,NW,315,0.7,2.6,68,0.00,CLR,OVC,0.26,WeatherDisplay:10.37,2013-07-08 19:07:00,
2013-07-08 14:12:00,85.6,73.9,29.93,NNW,338,0.7,3.8,68,0.00,CLR,OVC,0.26,WeatherDisplay:10.37,2013-07-08 19:12:00,
2013-07-08 14:18:00,85.6,73.9,29.93,North,0,1.6,1.6,68,0.00,CLR,OVC,0.26,WeatherDisplay:10.37,2013-07-08 19:18:00,
2013-07-08 14:23:00,85.8,74.0,29.93,NNE,22,1.6,1.6,68,0.00,CLR,OVC,0.26,WeatherDisplay:10.37,2013-07-08 19:23:00,
2013-07-08 14:29:00,85.8,73.6,29.93,North,0,1.4,2.3,67,0.00,CLR,OVC,0.26,WeatherDisplay:10.37,2013-07-08 19:29:00,
2013-07-08 14:34:00,86.0,73.8,29.93,North,0,2.4,2.4,67,0.00,CLR,OVC,0.26,WeatherDisplay:10.37,2013-07-08 19:34:00,
2013-07-08 14:39:00,85.8,72.2,29.93,NW,315,1.6,1.6,64,0.00,CLR,OVC,0.26,WeatherDisplay:10.37,2013-07-08 19:39:00,
2013-07-08 14:44:00,85.8,73.1,29.93,WNW,292,1.2,2.3,66,0.00,CLR,OVC,0.26,WeatherDisplay:10.37,2013-07-08 19:44:00,
2013-07-08 14:50:00,86.0,73.3,29.93,WNW,292,0.2,2.3,66,0.00,CLR,OVC,0.26,WeatherDisplay:10.37,2013-07-08 19:50:00,
2013-07-08 14:55:00,86.2,73.5,29.93,NNE,22,2.4,2.6,66,0.00,CLR,OVC,0.26,WeatherDisplay:10.37,2013-07-08 19:55:00,
2013-07-08 15:01:00,86.4,73.2,29.93,WNW,292,0.5,1.2,65,0.00,CLR,OVC,0.26,WeatherDisplay:10.37,2013-07-08 20:01:00,
2013-07-08 15:06:00,86.7,74.0,29.93,NNW,338,1.8,2.3,66,0.00,CLR,OVC,0.26,WeatherDisplay:10.37,2013-07-08 20:06:00,
2013-07-08 15:12:00,86.9,74.2,29.93,WNW,292,1.4,2.3,66,0.00,CLR,OVC,0.26,WeatherDisplay:10.37,2013-07-08 20:12:00,
2013-07-08 15:17:00,87.3,73.6,29.93,West,270,4.0,4.0,64,0.00,CLR,OVC,0.26,WeatherDisplay:10.37,2013-07-08 20:17:00,
2013-07-08 15:22:00,87.3,73.1,29.93,NW,315,2.4,2.4,63,0.00,CLR,OVC,0.26,WeatherDisplay:10.37,2013-07-08 20:22:00,
2013-07-08 15:27:00,87.3,72.6,29.93,WNW,292,2.4,2.4,62,0.00,CLR,OVC,0.26,WeatherDisplay:10.37,2013-07-08 20:27:00,
2013-07-08 15:34:00,87.3,72.2,29.93,SSW,202,1.8,4.6,61,0.00,CLR,OVC,0.26,WeatherDisplay:10.37,2013-07-08 20:34:00,
2013-07-08 15:39:00,87.3,71.7,29.93,West,270,1.6,2.3,60,0.00,CLR,OVC,0.26,WeatherDisplay:10.37,2013-07-08 20:39:00,
2013-07-08 15:45:00,87.1,72.5,29.93,WNW,292,1.8,5.2,62,0.00,CLR,OVC,0.26,WeatherDisplay:10.37,2013-07-08 20:45:00,
2013-07-08 15:51:00,87.1,72.5,29.93,WSW,248,0.9,1.2,62,0.00,CLR,OVC,0.26,WeatherDisplay:10.37,2013-07-08 20:51:00,
2013-07-08 15:56:00,86.7,72.6,29.93,SW,225,2.4,2.4,63,0.00,CLR,OVC,0.26,WeatherDisplay:10.37,2013-07-08 20:56:00,
2013-07-08 16:02:00,86.7,72.1,29.93,SSE,158,0.9,1.2,62,0.00,CLR,OVC,0.26,WeatherDisplay:10.37,2013-07-08 21:02:00,
2013-07-08 16:09:00,86.9,74.2,29.93,NNE,22,4.7,4.7,66,0.00,CLR,OVC,0.26,WeatherDisplay:10.37,2013-07-08 21:09:00,
2013-07-08 16:14:00,86.9,74.6,29.93,North,0,1.8,4.6,67,0.00,CLR,OVC,0.26,WeatherDisplay:10.37,2013-07-08 21:14:00,
2013-07-08 16:19:00,86.9,72.8,29.93,NW,315,1.6,2.3,63,0.00,CLR,OVC,0.26,WeatherDisplay:10.37,2013-07-08 21:19:00,
2013-07-08 16:24:00,86.9,72.8,29.93,North,0,0.7,3.5,63,0.00,CLR,OVC,0.26,WeatherDisplay:10.37,2013-07-08 21:24:00,
2013-07-08 16:30:00,87.1,72.5,29.93,West,270,0.9,1.4,62,0.00,CLR,OVC,0.26,WeatherDisplay:10.37,2013-07-08 21:30:00,
2013-07-08 16:35:00,87.4,72.8,29.93,WNW,292,1.2,2.3,62,0.00,CLR,OVC,0.26,WeatherDisplay:10.37,2013-07-08 21:35:00,
2013-07-08 16:41:00,87.6,71.5,29.93,NW,315,1.4,2.3,59,0.00,CLR,OVC,0.26,WeatherDisplay:10.37,2013-07-08 21:41:00,
2013-07-08 16:46:00,87.4,71.8,29.93,NW,315,1.8,2.3,60,0.00,CLR,OVC,0.26,WeatherDisplay:10.37,2013-07-08 21:46:00,
2013-07-08 16:53:00,87.4,71.8,29.93,WNW,292,0.7,2.4,60,0.00,CLR,OVC,0.26,WeatherDisplay:10.37,2013-07-08 21:53:00,
2013-07-08 16:59:00,87.6,71.5,29.93,WNW,292,1.4,2.3,59,0.00,CLR,OVC,0.26,WeatherDisplay:10.37,2013-07-08 21:59:00,
2013-07-08 17:04:00,87.8,71.7,29.93,WNW,292,2.9,2.9,59,0.00,CLR,OVC,0.26,WeatherDisplay:10.37,2013-07-08 22:04:00,
2013-07-08 17:10:00,87.8,71.7,29.93,West,270,2.0,2.3,59,0.00,CLR,OVC,0.26,WeatherDisplay:10.37,2013-07-08 22:10:00,
2013-07-08 17:16:00,88.0,72.4,29.92,West,270,2.4,2.4,60,0.00,CLR,OVC,0.26,WeatherDisplay:10.37,2013-07-08 22:16:00,
2013-07-08 17:21:00,88.0,72.4,29.92,NNW,338,1.8,2.3,60,0.00,CLR,OVC,0.26,WeatherDisplay:10.37,2013-07-08 22:21:00,
2013-07-08 17:26:00,87.8,72.7,29.92,NNE,22,1.2,1.2,61,0.00,CLR,OVC,0.26,WeatherDisplay:10.37,2013-07-08 22:26:00,
2013-07-08 17:31:00,87.8,72.7,29.93,West,270,0.5,2.3,61,0.00,CLR,OVC,0.26,WeatherDisplay:10.37,2013-07-08 22:31:00,
2013-07-08 17:38:00,87.4,72.8,29.92,NNE,22,1.8,2.3,62,0.00,CLR,OVC,0.26,WeatherDisplay:10.37,2013-07-08 22:38:00,
2013-07-08 17:43:00,87.4,72.8,29.92,North,0,2.2,2.3,62,0.00,CLR,OVC,0.26,WeatherDisplay:10.37,2013-07-08 22:43:00,
2013-07-08 17:48:00,87.4,72.8,29.92,NNW,338,0.0,1.2,62,0.00,CLR,OVC,0.26,WeatherDisplay:10.37,2013-07-08 22:48:00,
2013-07-08 17:54:00,87.4,72.8,29.92,WSW,248,4.7,4.7,62,0.00,CLR,OVC,0.26,WeatherDisplay:10.37,2013-07-08 22:54:00,
2013-07-08 17:59:00,87.4,72.8,29.92,WSW,248,1.4,4.6,62,0.00,CLR,OVC,0.26,WeatherDisplay:10.37,2013-07-08 22:59:00,
2013-07-08 18:04:00,87.6,73.0,29.92,WNW,292,1.2,1.2,62,0.00,CLR,OVC,0.26,WeatherDisplay:10.37,2013-07-08 23:04:00,
2013-07-08 18:09:00,87.8,72.2,29.92,NW,315,4.0,4.6,60,0.00,CLR,OVC,0.26,WeatherDisplay:10.37,2013-07-08 23:09:00,
2013-07-08 18:15:00,87.8,72.7,29.93,NW,315,1.2,1.4,61,0.00,CLR,OVC,0.26,WeatherDisplay:10.37,2013-07-08 23:15:00,
2013-07-08 18:20:00,87.8,72.2,29.93,NW,315,1.2,2.3,60,0.00,CLR,OVC,0.26,WeatherDisplay:10.37,2013-07-08 23:20:00,
2013-07-08 18:26:00,87.8,72.7,29.93,North,0,0.7,2.3,61,0.00,CLR,OVC,0.26,WeatherDisplay:10.37,2013-07-08 23:26:00,
2013-07-08 18:33:00,87.8,72.7,29.93,NNW,338,0.9,2.3,61,0.00,CLR,OVC,0.26,WeatherDisplay:10.37,2013-07-08 23:33:00,
2013-07-08 18:38:00,87.8,72.7,29.93,North,0,1.8,2.3,61,0.00,CLR,OVC,0.26,WeatherDisplay:10.37,2013-07-08 23:38:00,
2013-07-08 18:43:00,87.6,72.5,29.93,NNW,338,0.9,1.2,61,0.00,CLR,OVC,0.26,WeatherDisplay:10.37,2013-07-08 23:43:00,
2013-07-08 18:48:00,87.4,72.3,29.93,North,0,0.0,0.2,61,0.00,CLR,OVC,0.26,WeatherDisplay:10.37,2013-07-08 23:48:00,
2013-07-08 18:54:00,87.4,72.8,29.93,NNW,338,0.9,0.9,62,0.00,CLR,OVC,0.26,WeatherDisplay:10.37,2013-07-08 23:54:00,
2013-07-08 18:59:00,87.6,73.0,29.93,WNW,292,0.2,1.2,62,0.00,CLR,OVC,0.26,WeatherDisplay:10.37,2013-07-08 23:59:00,
2013-07-08 19:05:00,87.4,72.8,29.93,WNW,292,1.2,2.3,62,0.00,CLR,OVC,0.26,WeatherDisplay:10.37,2013-07-09 00:05:00,
2013-07-08 19:11:00,87.4,72.8,29.93,NNW,338,0.2,1.2,62,0.00,CLR,OVC,0.26,WeatherDisplay:10.37,2013-07-09 00:11:00,
2013-07-08 19:17:00,87.4,73.3,29.93,NW,315,0.7,1.2,63,0.00,CLR,OVC,0.26,WeatherDisplay:10.37,2013-07-09 00:17:00,
2013-07-08 19:24:00,87.1,73.0,29.93,WNW,292,0.5,1.2,63,0.00,CLR,OVC,0.26,WeatherDisplay:10.37,2013-07-09 00:24:00,
2013-07-08 19:30:00,86.7,72.6,29.93,NNW,338,0.2,0.5,63,0.00,CLR,OVC,0.26,WeatherDisplay:10.37,2013-07-09 00:30:00,
2013-07-08 19:35:00,86.7,73.1,29.92,NNW,338,0.2,0.2,64,0.00,CLR,OVC,0.26,WeatherDisplay:10.37,2013-07-09 00:35:00,
2013-07-08 19:41:00,86.7,73.5,29.92,North,0,0.9,1.2,65,0.00,CLR,OVC,0.26,WeatherDisplay:10.37,2013-07-09 00:41:00,
2013-07-08 19:47:00,86.5,74.3,29.92,NNE,22,1.2,4.6,67,0.00,CLR,OVC,0.26,WeatherDisplay:10.37,2013-07-09 00:47:00,
2013-07-08 19:53:00,86.2,73.9,29.92,East,90,2.2,2.3,67,0.00,CLR,OVC,0.26,WeatherDisplay:10.37,2013-07-09 00:53:00,
2013-07-08 19:58:00,86.0,74.2,29.92,ENE,68,0.5,1.2,68,0.00,CLR,OVC,0.26,WeatherDisplay:10.37,2013-07-09 00:58:00,
2013-07-08 20:04:00,85.8,74.9,29.91,ENE,68,0.2,0.5,70,0.00,CLR,OVC,0.26,WeatherDisplay:10.37,2013-07-09 01:04:00,
2013-07-08 20:10:00,85.3,74.8,29.91,NE,45,1.2,1.2,71,0.00,CLR,OVC,0.26,WeatherDisplay:10.37,2013-07-09 01:10:00,
2013-07-08 20:15:00,84.9,74.5,29.91,NE,45,1.2,1.2,71,0.00,CLR,OVC,0.26,WeatherDisplay:10.37,2013-07-09 01:15:00,
2013-07-08 20:21:00,84.6,74.1,29.91,NE,45,0.7,1.2,71,0.00,CLR,OVC,0.26,WeatherDisplay:10.37,2013-07-09 01:21:00,
2013-07-08 20:26:00,84.2,73.8,29.91,NNE,22,0.5,1.2,71,0.00,CLR,OVC,0.26,WeatherDisplay:10.37,2013-07-09 01:26:00,
2013-07-08 20:32:00,83.8,73.8,29.91,NE,45,1.2,1.2,72,0.00,CLR,OVC,0.26,WeatherDisplay:10.37,2013-07-09 01:32:00,
2013-07-08 20:37:00,83.7,73.7,29.91,NE,45,1.8,2.3,72,0.00,CLR,OVC,0.26,WeatherDisplay:10.37,2013-07-09 01:37:00,
2013-07-08 20:42:00,83.3,73.7,29.92,NE,45,0.9,1.4,73,0.00,CLR,OVC,0.26,WeatherDisplay:10.37,2013-07-09 01:42:00,
2013-07-08 20:48:00,82.8,73.6,29.92,NE,45,1.8,2.3,74,0.00,CLR,OVC,0.26,WeatherDisplay:10.37,2013-07-09 01:48:00,
2013-07-08 20:54:00,82.4,73.3,29.92,East,90,0.9,3.5,74,0.00,CLR,OVC,0.26,WeatherDisplay:10.37,2013-07-09 01:54:00,
2013-07-08 20:59:00,82.0,73.3,29.93,East,90,1.8,2.3,75,0.00,CLR,OVC,0.26,WeatherDisplay:10.37,2013-07-09 01:59:00,
2013-07-08 21:04:00,81.7,72.6,29.93,East,90,3.8,3.8,74,0.00,CLR,OVC,0.26,WeatherDisplay:10.37,2013-07-09 02:04:00,
2013-07-08 21:10:00,81.3,72.6,29.94,ESE,112,2.2,2.3,75,0.00,CLR,OVC,0.26,WeatherDisplay:10.37,2013-07-09 02:10:00,
2013-07-08 21:16:00,81.0,72.3,29.94,SE,135,5.2,5.2,75,0.00,CLR,OVC,0.26,WeatherDisplay:10.37,2013-07-09 02:16:00,
2013-07-08 21:21:00,80.6,71.9,29.94,ESE,112,5.4,5.8,75,0.00,CLR,OVC,0.26,WeatherDisplay:10.37,2013-07-09 02:21:00,
2013-07-08 21:26:00,81.0,72.3,29.95,ESE,112,3.3,5.2,75,0.00,CLR,OVC,0.26,WeatherDisplay:10.37,2013-07-09 02:26:00,
2013-07-08 21:32:00,81.1,72.5,29.94,ESE,112,1.8,3.5,75,0.00,CLR,OVC,0.26,WeatherDisplay:10.37,2013-07-09 02:32:00,
2013-07-08 21:37:00,81.1,72.5,29.94,East,90,2.4,2.4,75,0.00,CLR,OVC,0.26,WeatherDisplay:10.37,2013-07-09 02:37:00,
2013-07-08 21:42:00,81.1,72.5,29.94,ESE,112,1.6,2.3,75,0.00,CLR,OVC,0.26,WeatherDisplay:10.37,2013-07-09 02:42:00,
2013-07-08 21:48:00,81.1,72.5,29.94,ESE,112,2.4,2.4,75,0.00,CLR,OVC,0.26,WeatherDisplay:10.37,2013-07-09 02:48:00,
2013-07-08 21:53:00,81.1,72.5,29.94,SE,135,2.9,2.9,75,0.00,CLR,OVC,0.26,WeatherDisplay:10.37,2013-07-09 02:53:00,
2013-07-08 21:58:00,81.1,72.1,29.95,SSE,158,5.4,5.8,74,0.00,CLR,OVC,0.26,WeatherDisplay:10.37,2013-07-09 02:58:00,
2013-07-08 22:04:00,81.7,72.6,29.95,ESE,112,4.9,4.9,74,0.00,CLR,OVC,0.26,WeatherDisplay:10.37,2013-07-09 03:04:00,
2013-07-08 22:09:00,81.9,72.4,29.95,SE,135,4.5,5.8,73,0.00,CLR,OVC,0.26,WeatherDisplay:10.37,2013-07-09 03:09:00,
2013-07-08 22:14:00,82.2,73.1,29.95,SE,135,0.9,1.2,74,0.00,CLR,OVC,0.26,WeatherDisplay:10.37,2013-07-09 03:14:00,
2013-07-08 22:20:00,82.0,72.9,29.95,SSE,158,0.5,1.2,74,0.00,CLR,OVC,0.26,WeatherDisplay:10.37,2013-07-09 03:20:00,
2013-07-08 22:25:00,81.7,72.2,29.95,South,180,0.0,1.2,73,0.00,CLR,OVC,0.26,WeatherDisplay:10.37,2013-07-09 03:25:00,
2013-07-08 22:31:00,81.5,72.0,29.95,SSW,202,2.0,2.3,73,0.00,CLR,OVC,0.26,WeatherDisplay:10.37,2013-07-09 03:31:00,
2013-07-08 22:36:00,81.3,72.2,29.95,SW,225,2.2,2.3,74,0.00,CLR,OVC,0.26,WeatherDisplay:10.37,2013-07-09 03:36:00,
2013-07-08 22:41:00,81.3,72.6,29.95,SW,225,1.6,2.3,75,0.00,CLR,OVC,0.26,WeatherDisplay:10.37,2013-07-09 03:41:00,
2013-07-08 22:46:00,81.1,72.5,29.95,SW,225,1.6,1.6,75,0.00,CLR,OVC,0.26,WeatherDisplay:10.37,2013-07-09 03:46:00,
2013-07-08 22:52:00,81.0,72.3,29.95,SSW,202,2.0,2.3,75,0.00,CLR,OVC,0.26,WeatherDisplay:10.37,2013-07-09 03:52:00,
2013-07-08 22:57:00,80.8,72.1,29.95,SW,225,1.2,2.3,75,0.00,CLR,OVC,0.26,WeatherDisplay:10.37,2013-07-09 03:57:00,
2013-07-08 23:01:00,80.6,71.9,29.95,SW,225,0.9,1.2,75,0.00,CLR,OVC,0.26,WeatherDisplay:10.37,2013-07-09 04:01:00,
2013-07-08 23:02:00,80.6,71.9,29.95,SW,225,0.9,1.2,75,0.00,CLR,OVC,0.26,WeatherDisplay:10.37,2013-07-09 04:02:00,
2013-07-08 23:07:00,80.4,71.8,29.95,West,270,1.8,2.3,75,0.00,CLR,OVC,0.26,WeatherDisplay:10.37,2013-07-09 04:07:00,
2013-07-08 23:12:00,80.2,71.6,29.95,West,270,1.8,3.5,75,0.00,CLR,OVC,0.26,WeatherDisplay:10.37,2013-07-09 04:12:00,
2013-07-08 23:17:00,79.9,71.6,29.95,West,270,4.3,4.6,76,0.00,CLR,OVC,0.26,WeatherDisplay:10.37,2013-07-09 04:17:00,
2013-07-08 23:22:00,79.7,71.5,29.96,West,270,1.6,3.5,76,0.00,CLR,OVC,0.26,WeatherDisplay:10.37,2013-07-09 04:22:00,
2013-07-08 23:27:00,79.3,71.1,29.95,West,270,1.8,2.3,76,0.00,CLR,OVC,0.26,WeatherDisplay:10.37,2013-07-09 04:27:00,
2013-07-08 23:32:00,79.2,70.9,29.95,West,270,3.3,3.5,76,0.00,CLR,OVC,0.26,WeatherDisplay:10.37,2013-07-09 04:32:00,
2013-07-08 23:37:00,79.0,70.8,29.95,SW,225,2.0,2.3,76,0.00,CLR,OVC,0.26,WeatherDisplay:10.37,2013-07-09 04:37:00,
2013-07-08 23:42:00,78.8,70.6,29.96,West,270,1.8,2.3,76,0.00,CLR,OVC,0.26,WeatherDisplay:10.37,2013-07-09 04:42:00,
2013-07-08 23:47:00,78.6,70.4,29.95,SW,225,2.2,2.3,76,0.00,CLR,OVC,0.26,WeatherDisplay:10.37,2013-07-09 04:47:00,
2013-07-08 23:52:00,78.6,70.4,29.96,SW,225,2.6,2.6,76,0.00,CLR,OVC,0.26,WeatherDisplay:10.37,2013-07-09 04:52:00,
2013-07-08 23:57:00,78.4,70.2,29.96,SW,225,2.9,2.9,76,0.00,CLR,OVC,0.26,WeatherDisplay:10.37,2013-07-09 04:57:00,